sensor_id;sensor_type;location;lat;lon;timestamp;pressure;altitude;pressure_sealevel;temperature;humidity
65758;BME280;52495;52.208;5.158;2023-06-22T00:01:14;101889.34;;;19.94;75.57
65758;BME280;52495;52.208;5.158;2023-06-22T00:03:41;101879.00;;;19.91;75.46
65758;BME280;52495;52.208;5.158;2023-06-22T00:06:08;101875.72;;;19.84;75.87
65758;BME280;52495;52.208;5.158;2023-06-22T00:08:34;101884.38;;;19.86;76.00
65758;BME280;52495;52.208;5.158;2023-06-22T00:11:01;101880.88;;;19.88;76.23
65758;BME280;52495;52.208;5.158;2023-06-22T00:13:28;101880.06;;;19.85;76.35
65758;BME280;52495;52.208;5.158;2023-06-22T00:15:56;101884.38;;;19.88;76.55
65758;BME280;52495;52.208;5.158;2023-06-22T00:18:23;101892.09;;;19.91;76.10
65758;BME280;52495;52.208;5.158;2023-06-22T00:20:53;101879.91;;;19.90;76.04
65758;BME280;52495;52.208;5.158;2023-06-22T00:23:23;101883.59;;;19.84;76.34
65758;BME280;52495;52.208;5.158;2023-06-22T00:25:50;101891.72;;;19.78;76.53
65758;BME280;52495;52.208;5.158;2023-06-22T00:28:17;101884.31;;;19.66;77.02
65758;BME280;52495;52.208;5.158;2023-06-22T00:30:44;101885.66;;;19.54;78.21
65758;BME280;52495;52.208;5.158;2023-06-22T00:33:12;101879.75;;;19.49;78.86
65758;BME280;52495;52.208;5.158;2023-06-22T00:35:40;101880.84;;;19.43;79.14
65758;BME280;52495;52.208;5.158;2023-06-22T00:38:08;101877.53;;;19.38;79.71
65758;BME280;52495;52.208;5.158;2023-06-22T00:40:35;101875.47;;;19.46;79.54
65758;BME280;52495;52.208;5.158;2023-06-22T00:43:02;101868.28;;;19.51;79.23
65758;BME280;52495;52.208;5.158;2023-06-22T00:45:28;101862.13;;;19.52;79.18
65758;BME280;52495;52.208;5.158;2023-06-22T00:47:56;101858.16;;;19.42;79.74
65758;BME280;52495;52.208;5.158;2023-06-22T00:50:27;101862.53;;;19.41;79.98
65758;BME280;52495;52.208;5.158;2023-06-22T00:52:56;101866.03;;;19.42;79.67
65758;BME280;52495;52.208;5.158;2023-06-22T00:55:24;101857.38;;;19.40;79.73
65758;BME280;52495;52.208;5.158;2023-06-22T00:57:51;101854.53;;;19.46;79.42
65758;BME280;52495;52.208;5.158;2023-06-22T01:00:22;101848.50;;;19.44;79.56
65758;BME280;52495;52.208;5.158;2023-06-22T01:02:50;101852.25;;;19.37;80.51
65758;BME280;52495;52.208;5.158;2023-06-22T01:05:18;101854.81;;;19.38;80.61
65758;BME280;52495;52.208;5.158;2023-06-22T01:07:55;101857.56;;;19.35;80.91
65758;BME280;52495;52.208;5.158;2023-06-22T01:10:28;101847.91;;;19.36;81.00
65758;BME280;52495;52.208;5.158;2023-06-22T01:13:02;101847.81;;;19.39;81.15
65758;BME280;52495;52.208;5.158;2023-06-22T01:15:33;101853.97;;;19.38;81.24
65758;BME280;52495;52.208;5.158;2023-06-22T01:18:04;101849.75;;;19.34;81.27
65758;BME280;52495;52.208;5.158;2023-06-22T01:20:32;101853.41;;;19.30;81.38
65758;BME280;52495;52.208;5.158;2023-06-22T01:23:10;101857.88;;;19.26;81.86
65758;BME280;52495;52.208;5.158;2023-06-22T01:25:45;101855.16;;;19.29;81.21
65758;BME280;52495;52.208;5.158;2023-06-22T01:28:23;101842.19;;;19.26;80.78
65758;BME280;52495;52.208;5.158;2023-06-22T01:30:52;101846.75;;;19.21;80.43
65758;BME280;52495;52.208;5.158;2023-06-22T01:33:31;101846.69;;;19.22;80.26
65758;BME280;52495;52.208;5.158;2023-06-22T01:36:00;101852.13;;;19.16;80.71
65758;BME280;52495;52.208;5.158;2023-06-22T01:38:28;101855.91;;;19.09;81.23
65758;BME280;52495;52.208;5.158;2023-06-22T01:40:57;101858.72;;;19.04;82.22
65758;BME280;52495;52.208;5.158;2023-06-22T01:43:25;101857.94;;;19.01;82.81
65758;BME280;52495;52.208;5.158;2023-06-22T01:45:57;101861.47;;;19.00;82.92
65758;BME280;52495;52.208;5.158;2023-06-22T01:48:24;101852.06;;;18.94;83.40
65758;BME280;52495;52.208;5.158;2023-06-22T01:50:52;101844.47;;;18.86;84.12
65758;BME280;52495;52.208;5.158;2023-06-22T01:53:20;101845.28;;;18.88;83.69
65758;BME280;52495;52.208;5.158;2023-06-22T01:55:50;101844.19;;;18.94;83.59
65758;BME280;52495;52.208;5.158;2023-06-22T01:58:20;101838.13;;;18.93;83.40
65758;BME280;52495;52.208;5.158;2023-06-22T02:00:50;101839.88;;;18.93;83.39
65758;BME280;52495;52.208;5.158;2023-06-22T02:03:23;101837.44;;;18.88;83.84
65758;BME280;52495;52.208;5.158;2023-06-22T02:05:54;101838.53;;;18.81;84.13
65758;BME280;52495;52.208;5.158;2023-06-22T02:08:26;101835.94;;;18.81;84.11
65758;BME280;52495;52.208;5.158;2023-06-22T02:10:55;101837.72;;;18.80;84.49
65758;BME280;52495;52.208;5.158;2023-06-22T02:13:24;101835.91;;;18.83;84.22
65758;BME280;52495;52.208;5.158;2023-06-22T02:15:51;101836.06;;;18.78;84.48
65758;BME280;52495;52.208;5.158;2023-06-22T02:18:20;101833.66;;;18.72;84.22
65758;BME280;52495;52.208;5.158;2023-06-22T02:20:47;101830.13;;;18.73;84.42
65758;BME280;52495;52.208;5.158;2023-06-22T02:23:14;101837.06;;;18.74;84.34
65758;BME280;52495;52.208;5.158;2023-06-22T02:25:41;101830.16;;;18.71;84.42
65758;BME280;52495;52.208;5.158;2023-06-22T02:28:09;101836.38;;;18.69;83.81
65758;BME280;52495;52.208;5.158;2023-06-22T02:30:37;101835.00;;;18.58;84.56
65758;BME280;52495;52.208;5.158;2023-06-22T02:33:06;101837.72;;;18.55;84.74
65758;BME280;52495;52.208;5.158;2023-06-22T02:35:34;101830.94;;;18.49;84.66
65758;BME280;52495;52.208;5.158;2023-06-22T02:38:03;101830.09;;;18.49;84.71
65758;BME280;52495;52.208;5.158;2023-06-22T02:40:30;101834.47;;;18.48;84.50
65758;BME280;52495;52.208;5.158;2023-06-22T02:42:57;101824.81;;;18.50;84.53
65758;BME280;52495;52.208;5.158;2023-06-22T02:45:27;101828.47;;;18.45;84.60
65758;BME280;52495;52.208;5.158;2023-06-22T02:47:55;101832.06;;;18.42;84.66
65758;BME280;52495;52.208;5.158;2023-06-22T02:50:23;101830.50;;;18.37;84.51
65758;BME280;52495;52.208;5.158;2023-06-22T02:52:51;101823.63;;;18.34;84.76
65758;BME280;52495;52.208;5.158;2023-06-22T02:55:18;101825.53;;;18.29;85.53
65758;BME280;52495;52.208;5.158;2023-06-22T02:57:52;101823.84;;;18.28;85.58
65758;BME280;52495;52.208;5.158;2023-06-22T03:00:20;101822.94;;;18.29;85.79
65758;BME280;52495;52.208;5.158;2023-06-22T03:02:48;101821.16;;;18.29;85.44
65758;BME280;52495;52.208;5.158;2023-06-22T03:05:16;101828.06;;;18.32;85.96
65758;BME280;52495;52.208;5.158;2023-06-22T03:07:44;101829.00;;;18.29;86.49
65758;BME280;52495;52.208;5.158;2023-06-22T03:10:14;101826.38;;;18.29;87.27
65758;BME280;52495;52.208;5.158;2023-06-22T03:12:43;101819.44;;;18.28;86.97
65758;BME280;52495;52.208;5.158;2023-06-22T03:15:11;101830.72;;;18.30;86.35
65758;BME280;52495;52.208;5.158;2023-06-22T03:17:39;101820.31;;;18.29;85.50
65758;BME280;52495;52.208;5.158;2023-06-22T03:20:08;101821.22;;;18.28;85.31
65758;BME280;52495;52.208;5.158;2023-06-22T03:22:36;101826.50;;;18.26;84.91
65758;BME280;52495;52.208;5.158;2023-06-22T03:25:05;101825.75;;;18.23;84.55
65758;BME280;52495;52.208;5.158;2023-06-22T03:27:38;101828.63;;;18.15;84.98
65758;BME280;52495;52.208;5.158;2023-06-22T03:30:08;101830.41;;;18.13;85.39
65758;BME280;52495;52.208;5.158;2023-06-22T03:32:35;101819.38;;;18.04;85.71
65758;BME280;52495;52.208;5.158;2023-06-22T03:35:05;101813.41;;;18.01;86.03
65758;BME280;52495;52.208;5.158;2023-06-22T03:37:34;101814.34;;;17.98;85.81
65758;BME280;52495;52.208;5.158;2023-06-22T03:40:01;101811.75;;;17.97;85.92
65758;BME280;52495;52.208;5.158;2023-06-22T03:42:30;101817.09;;;17.94;86.61
65758;BME280;52495;52.208;5.158;2023-06-22T03:44:59;101805.78;;;17.93;86.22
65758;BME280;52495;52.208;5.158;2023-06-22T03:47:26;101810.22;;;17.91;87.00
65758;BME280;52495;52.208;5.158;2023-06-22T03:49:53;101809.41;;;17.89;87.70
65758;BME280;52495;52.208;5.158;2023-06-22T03:52:20;101811.03;;;17.93;87.68
65758;BME280;52495;52.208;5.158;2023-06-22T03:54:47;101808.28;;;17.96;87.88
65758;BME280;52495;52.208;5.158;2023-06-22T03:57:14;101816.13;;;17.96;88.31
65758;BME280;52495;52.208;5.158;2023-06-22T03:59:40;101814.41;;;17.95;88.08
65758;BME280;52495;52.208;5.158;2023-06-22T04:02:08;101813.63;;;17.93;88.39
65758;BME280;52495;52.208;5.158;2023-06-22T04:04:35;101811.22;;;17.87;89.57
65758;BME280;52495;52.208;5.158;2023-06-22T04:07:04;101810.06;;;17.96;89.93
65758;BME280;52495;52.208;5.158;2023-06-22T04:09:31;101808.22;;;17.99;91.35
65758;BME280;52495;52.208;5.158;2023-06-22T04:11:58;101809.94;;;18.00;92.58
65758;BME280;52495;52.208;5.158;2023-06-22T04:14:24;101802.84;;;18.04;93.04
65758;BME280;52495;52.208;5.158;2023-06-22T04:16:51;101800.03;;;18.10;93.00
65758;BME280;52495;52.208;5.158;2023-06-22T04:19:19;101799.03;;;18.14;93.00
65758;BME280;52495;52.208;5.158;2023-06-22T04:21:46;101794.53;;;18.18;93.42
65758;BME280;52495;52.208;5.158;2023-06-22T04:24:14;101795.28;;;18.22;93.48
65758;BME280;52495;52.208;5.158;2023-06-22T04:26:40;101796.06;;;18.25;93.89
65758;BME280;52495;52.208;5.158;2023-06-22T04:29:11;101795.66;;;18.36;93.32
65758;BME280;52495;52.208;5.158;2023-06-22T04:31:38;101791.72;;;18.49;91.92
65758;BME280;52495;52.208;5.158;2023-06-22T04:34:06;101787.31;;;18.52;92.13
65758;BME280;52495;52.208;5.158;2023-06-22T04:36:38;101795.78;;;18.58;92.25
65758;BME280;52495;52.208;5.158;2023-06-22T04:39:06;101787.97;;;18.57;92.87
65758;BME280;52495;52.208;5.158;2023-06-22T04:41:36;101786.22;;;18.57;93.75
65758;BME280;52495;52.208;5.158;2023-06-22T04:44:09;101796.56;;;18.60;96.15
65758;BME280;52495;52.208;5.158;2023-06-22T04:46:36;101797.94;;;18.71;94.69
65758;BME280;52495;52.208;5.158;2023-06-22T04:49:05;101793.25;;;18.79;94.04
65758;BME280;52495;52.208;5.158;2023-06-22T04:51:50;101795.56;;;18.88;93.84
65758;BME280;52495;52.208;5.158;2023-06-22T04:54:17;101804.75;;;19.00;92.86
65758;BME280;52495;52.208;5.158;2023-06-22T04:56:43;101800.69;;;19.15;92.04
65758;BME280;52495;52.208;5.158;2023-06-22T04:59:12;101799.56;;;19.22;91.89
65758;BME280;52495;52.208;5.158;2023-06-22T05:01:39;101800.47;;;19.21;91.90
65758;BME280;52495;52.208;5.158;2023-06-22T05:04:06;101804.06;;;19.19;92.60
65758;BME280;52495;52.208;5.158;2023-06-22T05:06:33;101801.25;;;19.23;92.78
65758;BME280;52495;52.208;5.158;2023-06-22T05:09:01;101794.09;;;19.29;93.20
65758;BME280;52495;52.208;5.158;2023-06-22T05:11:30;101798.16;;;19.36;93.38
65758;BME280;52495;52.208;5.158;2023-06-22T05:13:57;101796.13;;;19.44;92.93
65758;BME280;52495;52.208;5.158;2023-06-22T05:16:24;101783.25;;;19.60;91.49
65758;BME280;52495;52.208;5.158;2023-06-22T05:18:52;101784.94;;;19.61;91.35
65758;BME280;52495;52.208;5.158;2023-06-22T05:21:22;101792.09;;;19.58;91.79
65758;BME280;52495;52.208;5.158;2023-06-22T05:23:49;101800.78;;;19.58;91.98
65758;BME280;52495;52.208;5.158;2023-06-22T05:26:17;101791.06;;;19.62;92.15
65758;BME280;52495;52.208;5.158;2023-06-22T05:28:44;101794.31;;;19.67;91.81
65758;BME280;52495;52.208;5.158;2023-06-22T05:31:13;101790.78;;;19.68;92.22
65758;BME280;52495;52.208;5.158;2023-06-22T05:33:40;101794.44;;;19.86;91.64
65758;BME280;52495;52.208;5.158;2023-06-22T05:36:07;101798.88;;;19.84;92.05
65758;BME280;52495;52.208;5.158;2023-06-22T05:38:34;101796.91;;;19.91;91.83
65758;BME280;52495;52.208;5.158;2023-06-22T05:41:01;101792.25;;;19.97;91.78
65758;BME280;52495;52.208;5.158;2023-06-22T05:43:29;101798.09;;;20.04;91.75
65758;BME280;52495;52.208;5.158;2023-06-22T05:45:56;101804.50;;;20.17;91.00
65758;BME280;52495;52.208;5.158;2023-06-22T05:48:23;101810.94;;;20.10;90.98
65758;BME280;52495;52.208;5.158;2023-06-22T05:50:50;101814.41;;;20.11;91.34
65758;BME280;52495;52.208;5.158;2023-06-22T05:53:16;101812.38;;;20.17;91.36
65758;BME280;52495;52.208;5.158;2023-06-22T05:55:43;101825.31;;;20.22;91.09
65758;BME280;52495;52.208;5.158;2023-06-22T05:58:10;101816.59;;;20.22;91.58
65758;BME280;52495;52.208;5.158;2023-06-22T06:00:40;101818.75;;;20.32;90.93
65758;BME280;52495;52.208;5.158;2023-06-22T06:03:07;101806.44;;;20.35;91.14
65758;BME280;52495;52.208;5.158;2023-06-22T06:05:34;101812.03;;;20.46;90.82
65758;BME280;52495;52.208;5.158;2023-06-22T06:08:03;101806.25;;;20.58;89.32
65758;BME280;52495;52.208;5.158;2023-06-22T06:10:31;101807.47;;;20.51;90.01
65758;BME280;52495;52.208;5.158;2023-06-22T06:12:58;101811.00;;;20.50;90.79
65758;BME280;52495;52.208;5.158;2023-06-22T06:15:27;101810.41;;;20.64;90.61
65758;BME280;52495;52.208;5.158;2023-06-22T06:17:55;101811.03;;;20.69;90.16
65758;BME280;52495;52.208;5.158;2023-06-22T06:20:23;101803.72;;;20.77;90.27
65758;BME280;52495;52.208;5.158;2023-06-22T06:22:50;101793.78;;;20.84;89.40
65758;BME280;52495;52.208;5.158;2023-06-22T06:25:17;101787.34;;;20.91;88.64
65758;BME280;52495;52.208;5.158;2023-06-22T06:27:48;101793.66;;;20.87;88.66
65758;BME280;52495;52.208;5.158;2023-06-22T06:30:16;101797.06;;;20.89;88.89
65758;BME280;52495;52.208;5.158;2023-06-22T06:32:44;101787.44;;;21.09;87.52
65758;BME280;52495;52.208;5.158;2023-06-22T06:35:14;101793.66;;;21.06;86.82
65758;BME280;52495;52.208;5.158;2023-06-22T06:37:43;101784.06;;;21.05;86.54
65758;BME280;52495;52.208;5.158;2023-06-22T06:40:13;101778.53;;;21.12;87.02
65758;BME280;52495;52.208;5.158;2023-06-22T06:42:41;101778.59;;;21.29;85.73
65758;BME280;52495;52.208;5.158;2023-06-22T06:45:11;101782.16;;;21.28;84.85
65758;BME280;52495;52.208;5.158;2023-06-22T06:47:38;101774.50;;;21.23;84.97
65758;BME280;52495;52.208;5.158;2023-06-22T06:50:06;101773.00;;;21.18;85.08
65758;BME280;52495;52.208;5.158;2023-06-22T06:52:35;101780.09;;;21.16;85.85
65758;BME280;52495;52.208;5.158;2023-06-22T06:55:02;101774.13;;;21.31;84.59
65758;BME280;52495;52.208;5.158;2023-06-22T06:57:30;101772.84;;;21.40;83.51
65758;BME280;52495;52.208;5.158;2023-06-22T06:59:57;101773.81;;;21.37;83.83
65758;BME280;52495;52.208;5.158;2023-06-22T07:02:25;101772.97;;;21.37;84.32
65758;BME280;52495;52.208;5.158;2023-06-22T07:04:53;101764.34;;;21.52;82.60
65758;BME280;52495;52.208;5.158;2023-06-22T07:07:21;101764.88;;;21.59;81.94
65758;BME280;52495;52.208;5.158;2023-06-22T07:09:49;101763.91;;;21.62;81.60
65758;BME280;52495;52.208;5.158;2023-06-22T07:12:16;101767.56;;;21.77;80.89
65758;BME280;52495;52.208;5.158;2023-06-22T07:14:43;101772.81;;;21.77;80.66
65758;BME280;52495;52.208;5.158;2023-06-22T07:17:10;101767.03;;;21.88;80.44
65758;BME280;52495;52.208;5.158;2023-06-22T07:19:37;101764.09;;;21.94;79.73
65758;BME280;52495;52.208;5.158;2023-06-22T07:22:04;101762.59;;;22.06;79.95
65758;BME280;52495;52.208;5.158;2023-06-22T07:24:31;101753.38;;;22.14;79.50
65758;BME280;52495;52.208;5.158;2023-06-22T07:26:59;101752.41;;;22.17;78.65
65758;BME280;52495;52.208;5.158;2023-06-22T07:29:27;101762.59;;;22.23;77.91
65758;BME280;52495;52.208;5.158;2023-06-22T07:31:54;101758.22;;;22.40;77.30
65758;BME280;52495;52.208;5.158;2023-06-22T07:34:22;101762.38;;;22.46;77.64
65758;BME280;52495;52.208;5.158;2023-06-22T07:36:48;101765.00;;;22.46;77.52
65758;BME280;52495;52.208;5.158;2023-06-22T07:39:15;101753.13;;;22.54;77.64
65758;BME280;52495;52.208;5.158;2023-06-22T07:41:42;101754.38;;;22.63;77.59
65758;BME280;52495;52.208;5.158;2023-06-22T07:44:10;101755.97;;;22.83;75.68
65758;BME280;52495;52.208;5.158;2023-06-22T07:46:37;101745.28;;;22.86;74.98
65758;BME280;52495;52.208;5.158;2023-06-22T07:49:04;101754.88;;;22.87;75.64
65758;BME280;52495;52.208;5.158;2023-06-22T07:51:31;101742.72;;;23.01;75.32
65758;BME280;52495;52.208;5.158;2023-06-22T07:53:57;101740.41;;;23.11;74.85
65758;BME280;52495;52.208;5.158;2023-06-22T07:56:24;101747.19;;;23.15;74.82
65758;BME280;52495;52.208;5.158;2023-06-22T07:58:51;101744.38;;;23.18;73.74
65758;BME280;52495;52.208;5.158;2023-06-22T08:01:20;101748.59;;;23.22;73.93
65758;BME280;52495;52.208;5.158;2023-06-22T08:03:47;101742.63;;;23.34;74.23
65758;BME280;52495;52.208;5.158;2023-06-22T08:06:14;101734.59;;;23.52;72.11
65758;BME280;52495;52.208;5.158;2023-06-22T08:08:41;101727.81;;;23.48;72.64
65758;BME280;52495;52.208;5.158;2023-06-22T08:11:09;101723.69;;;23.58;71.94
65758;BME280;52495;52.208;5.158;2023-06-22T08:13:35;101720.03;;;23.61;72.13
65758;BME280;52495;52.208;5.158;2023-06-22T08:16:03;101721.91;;;23.59;71.56
65758;BME280;52495;52.208;5.158;2023-06-22T08:18:31;101713.25;;;23.57;70.77
65758;BME280;52495;52.208;5.158;2023-06-22T08:20:58;101719.47;;;23.56;70.63
65758;BME280;52495;52.208;5.158;2023-06-22T08:23:24;101710.41;;;23.60;70.06
65758;BME280;52495;52.208;5.158;2023-06-22T08:25:51;101706.78;;;23.62;69.28
65758;BME280;52495;52.208;5.158;2023-06-22T08:28:18;101699.69;;;23.63;69.54
65758;BME280;52495;52.208;5.158;2023-06-22T08:30:45;101691.97;;;23.60;69.46
65758;BME280;52495;52.208;5.158;2023-06-22T08:33:12;101692.66;;;23.63;69.44
65758;BME280;52495;52.208;5.158;2023-06-22T08:35:41;101695.19;;;23.79;69.47
65758;BME280;52495;52.208;5.158;2023-06-22T08:38:08;101684.13;;;23.89;68.85
65758;BME280;52495;52.208;5.158;2023-06-22T08:40:35;101686.88;;;24.02;68.22
65758;BME280;52495;52.208;5.158;2023-06-22T08:43:01;101691.31;;;24.16;67.81
65758;BME280;52495;52.208;5.158;2023-06-22T08:45:28;101693.75;;;24.33;66.03
65758;BME280;52495;52.208;5.158;2023-06-22T08:47:55;101694.63;;;24.34;66.93
65758;BME280;52495;52.208;5.158;2023-06-22T08:50:22;101692.72;;;24.50;66.29
65758;BME280;52495;52.208;5.158;2023-06-22T08:52:50;101681.44;;;24.61;65.99
65758;BME280;52495;52.208;5.158;2023-06-22T08:55:17;101677.22;;;24.73;65.74
65758;BME280;52495;52.208;5.158;2023-06-22T08:57:43;101673.13;;;24.82;64.55
65758;BME280;52495;52.208;5.158;2023-06-22T09:00:11;101680.13;;;24.83;64.52
65758;BME280;52495;52.208;5.158;2023-06-22T09:02:42;101665.50;;;25.05;64.25
65758;BME280;52495;52.208;5.158;2023-06-22T09:05:09;101672.63;;;25.17;61.91
65758;BME280;52495;52.208;5.158;2023-06-22T09:07:38;101665.94;;;25.11;62.62
65758;BME280;52495;52.208;5.158;2023-06-22T09:10:07;101675.47;;;25.14;62.10
65758;BME280;52495;52.208;5.158;2023-06-22T09:12:34;101668.28;;;25.16;61.07
65758;BME280;52495;52.208;5.158;2023-06-22T09:15:03;101667.66;;;25.12;61.92
65758;BME280;52495;52.208;5.158;2023-06-22T09:17:32;101659.09;;;25.22;61.72
65758;BME280;52495;52.208;5.158;2023-06-22T09:19:59;101666.38;;;25.18;61.80
65758;BME280;52495;52.208;5.158;2023-06-22T09:22:27;101659.91;;;25.09;60.11
65758;BME280;52495;52.208;5.158;2023-06-22T09:24:55;101660.56;;;25.13;59.28
65758;BME280;52495;52.208;5.158;2023-06-22T09:27:23;101654.31;;;25.14;58.63
65758;BME280;52495;52.208;5.158;2023-06-22T09:29:50;101650.94;;;25.12;59.58
65758;BME280;52495;52.208;5.158;2023-06-22T09:32:17;101656.97;;;25.14;60.19
65758;BME280;52495;52.208;5.158;2023-06-22T09:34:43;101657.41;;;25.21;59.91
65758;BME280;52495;52.208;5.158;2023-06-22T09:37:10;101659.88;;;25.37;57.79
65758;BME280;52495;52.208;5.158;2023-06-22T09:39:37;101656.75;;;25.44;57.03
65758;BME280;52495;52.208;5.158;2023-06-22T09:42:04;101664.03;;;25.54;55.59
65758;BME280;52495;52.208;5.158;2023-06-22T09:44:33;101659.94;;;25.50;55.52
65758;BME280;52495;52.208;5.158;2023-06-22T09:47:00;101655.81;;;25.58;55.31
65758;BME280;52495;52.208;5.158;2023-06-22T09:49:27;101652.97;;;25.62;54.64
65758;BME280;52495;52.208;5.158;2023-06-22T09:51:54;101664.25;;;25.64;54.90
65758;BME280;52495;52.208;5.158;2023-06-22T09:54:20;101654.22;;;25.56;54.91
65758;BME280;52495;52.208;5.158;2023-06-22T09:56:47;101654.31;;;25.54;53.67
65758;BME280;52495;52.208;5.158;2023-06-22T09:59:14;101650.31;;;25.49;53.41
65758;BME280;52495;52.208;5.158;2023-06-22T10:01:42;101646.06;;;25.46;53.88
65758;BME280;52495;52.208;5.158;2023-06-22T10:04:09;101647.66;;;25.49;54.40
65758;BME280;52495;52.208;5.158;2023-06-22T10:06:36;101647.53;;;25.50;54.82
65758;BME280;52495;52.208;5.158;2023-06-22T10:09:06;101643.22;;;25.62;53.01
65758;BME280;52495;52.208;5.158;2023-06-22T10:11:33;101639.94;;;25.58;53.53
65758;BME280;52495;52.208;5.158;2023-06-22T10:14:01;101642.81;;;25.55;53.96
65758;BME280;52495;52.208;5.158;2023-06-22T10:16:33;101634.13;;;25.53;53.16
65758;BME280;52495;52.208;5.158;2023-06-22T10:19:02;101635.19;;;25.51;53.71
65758;BME280;52495;52.208;5.158;2023-06-22T10:21:29;101636.56;;;25.56;53.84
65758;BME280;52495;52.208;5.158;2023-06-22T10:23:56;101639.75;;;25.62;54.19
65758;BME280;52495;52.208;5.158;2023-06-22T10:26:22;101635.50;;;25.59;54.61
65758;BME280;52495;52.208;5.158;2023-06-22T10:28:49;101640.25;;;25.67;54.70
65758;BME280;52495;52.208;5.158;2023-06-22T10:31:16;101635.50;;;25.59;54.88
65758;BME280;52495;52.208;5.158;2023-06-22T10:33:43;101637.91;;;25.49;55.30
65758;BME280;52495;52.208;5.158;2023-06-22T10:36:12;101636.34;;;25.47;54.86
65758;BME280;52495;52.208;5.158;2023-06-22T10:38:38;101631.13;;;25.45;55.35
65758;BME280;52495;52.208;5.158;2023-06-22T10:41:05;101635.47;;;25.46;55.76
65758;BME280;52495;52.208;5.158;2023-06-22T10:43:32;101633.50;;;25.50;54.32
65758;BME280;52495;52.208;5.158;2023-06-22T10:45:59;101640.88;;;25.44;54.49
65758;BME280;52495;52.208;5.158;2023-06-22T10:48:25;101651.13;;;25.36;55.53
65758;BME280;52495;52.208;5.158;2023-06-22T10:50:52;101645.81;;;25.36;55.78
65758;BME280;52495;52.208;5.158;2023-06-22T10:53:21;101644.75;;;25.39;55.62
65758;BME280;52495;52.208;5.158;2023-06-22T10:55:48;101641.16;;;25.40;54.76
65758;BME280;52495;52.208;5.158;2023-06-22T10:58:15;101655.41;;;25.37;55.27
65758;BME280;52495;52.208;5.158;2023-06-22T11:00:41;101645.72;;;25.38;54.06
65758;BME280;52495;52.208;5.158;2023-06-22T11:03:08;101654.03;;;25.31;54.86
65758;BME280;52495;52.208;5.158;2023-06-22T11:05:35;101650.03;;;25.26;55.03
65758;BME280;52495;52.208;5.158;2023-06-22T11:08:02;101646.22;;;25.30;54.70
65758;BME280;52495;52.208;5.158;2023-06-22T11:10:30;101654.78;;;25.34;54.72
65758;BME280;52495;52.208;5.158;2023-06-22T11:12:57;101650.66;;;25.29;55.32
65758;BME280;52495;52.208;5.158;2023-06-22T11:15:25;101650.66;;;25.29;55.15
65758;BME280;52495;52.208;5.158;2023-06-22T11:17:52;101642.09;;;25.26;54.92
65758;BME280;52495;52.208;5.158;2023-06-22T11:20:18;101649.38;;;25.22;55.64
65758;BME280;52495;52.208;5.158;2023-06-22T11:22:45;101646.53;;;25.25;55.27
65758;BME280;52495;52.208;5.158;2023-06-22T11:25:12;101647.25;;;25.14;55.02
65758;BME280;52495;52.208;5.158;2023-06-22T11:27:40;101650.84;;;25.13;54.83
65758;BME280;52495;52.208;5.158;2023-06-22T11:30:08;101642.47;;;25.07;55.71
65758;BME280;52495;52.208;5.158;2023-06-22T11:32:35;101642.13;;;24.98;57.32
65758;BME280;52495;52.208;5.158;2023-06-22T11:35:02;101636.31;;;24.93;57.75
65758;BME280;52495;52.208;5.158;2023-06-22T11:37:29;101635.47;;;24.93;58.75
65758;BME280;52495;52.208;5.158;2023-06-22T11:39:55;101634.38;;;24.82;59.95
65758;BME280;52495;52.208;5.158;2023-06-22T11:42:23;101634.03;;;24.74;59.42
65758;BME280;52495;52.208;5.158;2023-06-22T11:44:52;101634.88;;;24.60;61.17
65758;BME280;52495;52.208;5.158;2023-06-22T11:47:18;101634.22;;;24.57;61.76
65758;BME280;52495;52.208;5.158;2023-06-22T11:49:45;101623.97;;;24.52;62.45
65758;BME280;52495;52.208;5.158;2023-06-22T11:52:12;101624.31;;;24.60;61.42
65758;BME280;52495;52.208;5.158;2023-06-22T11:54:39;101621.44;;;24.50;61.87
65758;BME280;52495;52.208;5.158;2023-06-22T11:57:06;101617.09;;;24.49;62.50
65758;BME280;52495;52.208;5.158;2023-06-22T11:59:33;101615.59;;;24.45;63.37
65758;BME280;52495;52.208;5.158;2023-06-22T12:02:02;101609.44;;;24.45;63.69
65758;BME280;52495;52.208;5.158;2023-06-22T12:04:29;101601.19;;;24.36;64.31
65758;BME280;52495;52.208;5.158;2023-06-22T12:06:56;101603.47;;;24.28;63.96
65758;BME280;52495;52.208;5.158;2023-06-22T12:09:23;101601.91;;;24.11;64.90
65758;BME280;52495;52.208;5.158;2023-06-22T12:11:50;101590.88;;;24.04;66.06
65758;BME280;52495;52.208;5.158;2023-06-22T12:14:17;101589.94;;;24.05;67.09
65758;BME280;52495;52.208;5.158;2023-06-22T12:16:44;101586.94;;;23.97;67.81
65758;BME280;52495;52.208;5.158;2023-06-22T12:19:12;101584.94;;;24.01;68.73
65758;BME280;52495;52.208;5.158;2023-06-22T12:21:39;101580.34;;;24.04;68.18
65758;BME280;52495;52.208;5.158;2023-06-22T12:24:07;101581.03;;;23.92;69.65
65758;BME280;52495;52.208;5.158;2023-06-22T12:26:34;101579.38;;;23.91;69.98
65758;BME280;52495;52.208;5.158;2023-06-22T12:29:00;101581.34;;;23.87;70.13
65758;BME280;52495;52.208;5.158;2023-06-22T12:31:27;101580.31;;;23.90;70.11
65758;BME280;52495;52.208;5.158;2023-06-22T12:33:54;101586.72;;;23.86;71.09
65758;BME280;52495;52.208;5.158;2023-06-22T12:36:22;101587.84;;;23.82;71.12
65758;BME280;52495;52.208;5.158;2023-06-22T12:38:50;101588.03;;;23.78;71.11
65758;BME280;52495;52.208;5.158;2023-06-22T12:41:17;101582.69;;;23.80;71.07
65758;BME280;52495;52.208;5.158;2023-06-22T12:43:44;101578.72;;;23.73;71.67
65758;BME280;52495;52.208;5.158;2023-06-22T12:46:11;101582.69;;;23.80;70.58
65758;BME280;52495;52.208;5.158;2023-06-22T12:48:38;101578.72;;;23.73;71.12
65758;BME280;52495;52.208;5.158;2023-06-22T12:51:07;101572.38;;;23.61;71.27
65758;BME280;52495;52.208;5.158;2023-06-22T12:53:36;101567.50;;;23.69;70.81